Impacts TAF Board INFO
FOR SITUATIONAL AWARENESS. NOT TO BE USED FOR FLIGHT PLANNING PURPOSES.
IDs:

KMOB - Mobile Rgnl, AL, US

Issued at 1133 UTC 23 Jun 2018
Updated at 1534 UTC 23 Jun 2018
Potential Impact None Slight Moderate High
Time1456Z 23/16Z 23/17Z 23/18Z 23/19Z 23/20Z 23/21Z 23/22Z 23/23Z 24/00Z 24/01Z 24/02Z 24/03Z 24/04Z>>
Type OBS PRVL PRVL PRVL PRVL PRVL PRVL PRVL PRVL PRVL PRVL PRVL PRVL PRVL
VIS 10 >6 >6 >6 >6 >6 >6 >6 >6 >6 >6 >6 >6 >6
CIG 46 -- -- -- -- -- -- -- -- -- -- -- -- --
Cover BKN SCT SCT SCT SCT SCT SCT SCT SCT SCT SCT SCT SCT SCT
FltCat VFR VFR VFR VFR VFR VFR VFR VFR VFR VFR VFR VFR VFR VFR
WX -- -- -- -- -- -- -- -- -- -- -- -- -- --
WDir 240 240 240 240 240 240 240 240 240 240 190 190 190 190
WSpd 9 9 9 9 9 9 9 9 9 9 5 5 5 5
WGst -- -- -- -- -- -- -- -- -- -- -- -- -- --

Raw TAF
KMOB 231133Z 2312/2412 21004KT P6SM FEW021 FEW250
  FM231500 24009KT P6SM SCT040 SCT250
  FM240100 19005KT P6SM SCT050 SCT250


Raw METAR
KMOB 231456Z 24009KT 10SM FEW027 SCT034 BKN046 30/24 A2999 RMK AO2 SLP152 T03000239 51013
KMOB 231419Z VRB06KT 10SM FEW022 BKN037 BKN048 29/24 A2999 RMK AO2 T02890244
KMOB 231356Z 27007KT 10SM SCT020 BKN027 BKN036 29/24 A2999 RMK AO2 SLP151 T02890244
KMOB 231256Z 23009G16KT 10SM FEW016 28/24 A2997 RMK AO2 SLP145 T02780239

METAR Board
Radar Display
Forecast Discussion

FOR SITUATIONAL AWARENESS. NOT TO BE USED FOR FLIGHT PLANNING PURPOSES.